createdAt,value
2022-11-24T00:01:12.368Z,77.54
2022-11-24T00:03:39.273Z,77.53
2022-11-24T00:06:11.088Z,77.63
2022-11-24T00:08:39.422Z,77.60
2022-11-24T00:11:09.178Z,77.54
2022-11-24T00:13:39.174Z,77.55
2022-11-24T00:16:15.138Z,77.57
2022-11-24T00:18:43.574Z,77.51
2022-11-24T00:21:11.052Z,77.48
2022-11-24T00:23:38.330Z,77.46
2022-11-24T00:26:06.428Z,77.44
2022-11-24T00:28:35.247Z,77.50
2022-11-24T00:31:02.552Z,77.54
2022-11-24T00:33:29.735Z,77.61
2022-11-24T00:36:00.440Z,77.62
2022-11-24T00:38:27.586Z,77.58
2022-11-24T00:40:54.481Z,77.45
2022-11-24T00:43:21.507Z,77.47
2022-11-24T00:45:48.463Z,77.46
2022-11-24T00:48:15.493Z,77.46
2022-11-24T00:50:42.334Z,77.45
2022-11-24T00:53:09.312Z,77.52
2022-11-24T00:55:36.194Z,77.61
2022-11-24T00:58:02.987Z,77.60
2022-11-24T01:00:29.897Z,77.61
2022-11-24T01:02:56.820Z,77.67
2022-11-24T01:05:23.651Z,77.67
2022-11-24T01:07:50.518Z,77.63
2022-11-24T01:10:17.455Z,77.66
2022-11-24T01:12:44.267Z,77.66
2022-11-24T01:15:11.158Z,77.65
2022-11-24T01:17:38.014Z,77.82
2022-11-24T01:20:05.319Z,77.70
2022-11-24T01:22:32.575Z,77.72
2022-11-24T01:24:59.428Z,77.67
2022-11-24T01:27:26.271Z,77.70
2022-11-24T01:29:53.042Z,77.65
2022-11-24T01:32:19.890Z,77.61
2022-11-24T01:34:46.694Z,77.65
2022-11-24T01:37:13.583Z,77.83
2022-11-24T01:39:40.653Z,77.95
2022-11-24T01:42:08.092Z,78.03
2022-11-24T01:44:35.452Z,78.01
2022-11-24T01:47:20.360Z,78.03
2022-11-24T01:49:59.068Z,78.01
2022-11-24T01:52:38.416Z,78.00
2022-11-24T01:55:15.478Z,78.03
2022-11-24T01:57:52.045Z,78.11
2022-11-24T02:00:19.005Z,78.22
2022-11-24T02:02:45.968Z,78.35
2022-11-24T02:05:24.043Z,78.38
2022-11-24T02:07:54.292Z,78.36
2022-11-24T02:10:21.741Z,78.31
2022-11-24T02:12:51.682Z,78.32
2022-11-24T02:15:19.296Z,78.35
2022-11-24T02:17:46.085Z,78.37
2022-11-24T02:20:14.893Z,78.36
2022-11-24T02:23:01.078Z,78.39
2022-11-24T02:25:36.900Z,78.37
2022-11-24T02:28:08.822Z,78.34
2022-11-24T02:30:36.211Z,78.40
2022-11-24T02:33:03.684Z,78.42
2022-11-24T02:35:31.849Z,78.38
2022-11-24T02:37:58.663Z,78.36
2022-11-24T02:40:28.556Z,78.41
2022-11-24T02:43:03.910Z,78.42
2022-11-24T02:45:31.938Z,78.39
2022-11-24T02:47:58.867Z,78.38
2022-11-24T02:50:25.937Z,78.31
2022-11-24T02:52:52.769Z,78.32
2022-11-24T02:55:20.385Z,78.36
2022-11-24T02:57:47.443Z,78.37
2022-11-24T03:00:14.913Z,78.32
2022-11-24T03:02:41.993Z,78.27
2022-11-24T03:05:09.284Z,78.23
2022-11-24T03:07:36.090Z,78.31
2022-11-24T03:10:03.110Z,78.37
2022-11-24T03:12:29.969Z,78.43
2022-11-24T03:14:56.781Z,78.50
2022-11-24T03:17:23.565Z,78.58
2022-11-24T03:19:50.404Z,78.65
2022-11-24T03:22:17.224Z,78.58
2022-11-24T03:24:44.027Z,78.59
2022-11-24T03:27:10.845Z,78.62
2022-11-24T03:29:37.641Z,78.45
2022-11-24T03:32:05.205Z,78.39
2022-11-24T03:34:32.292Z,78.46
2022-11-24T03:36:59.422Z,78.50
2022-11-24T03:39:26.256Z,78.43
2022-11-24T03:41:53.117Z,78.46
2022-11-24T03:44:19.905Z,78.62
2022-11-24T03:46:46.814Z,78.69
2022-11-24T03:49:13.704Z,78.58
2022-11-24T03:51:40.550Z,78.66
2022-11-24T03:54:07.582Z,78.80
2022-11-24T03:56:34.386Z,78.83
2022-11-24T03:59:01.201Z,78.83
2022-11-24T04:01:28.033Z,78.76
2022-11-24T04:03:54.861Z,78.71
2022-11-24T04:06:21.662Z,78.73
2022-11-24T04:08:48.498Z,78.83
2022-11-24T04:11:35.373Z,79.03
2022-11-24T04:14:02.211Z,79.13
2022-11-24T04:16:29.032Z,79.18
2022-11-24T04:18:55.944Z,79.08
2022-11-24T04:21:22.898Z,79.07
2022-11-24T04:23:49.708Z,79.12
2022-11-24T04:26:16.552Z,79.26
2022-11-24T04:28:43.525Z,79.39
2022-11-24T04:31:10.472Z,79.49
2022-11-24T04:33:37.275Z,79.59
2022-11-24T04:36:04.279Z,79.62
2022-11-24T04:39:19.404Z,79.64
2022-11-24T04:41:17.924Z,79.71
2022-11-24T04:43:44.746Z,79.78
2022-11-24T04:46:11.986Z,79.81
2022-11-24T04:48:38.857Z,79.93
2022-11-24T04:51:06.538Z,79.97
2022-11-24T04:53:33.403Z,80.10
2022-11-24T04:56:03.923Z,80.09
2022-11-24T04:58:30.770Z,80.16
2022-11-24T05:00:57.579Z,80.22
2022-11-24T05:03:24.574Z,80.25
2022-11-24T05:05:51.452Z,80.24
2022-11-24T05:08:18.232Z,80.39
2022-11-24T05:10:45.103Z,80.29
2022-11-24T05:13:13.733Z,80.31
2022-11-24T05:15:41.852Z,80.35
2022-11-24T05:18:12.174Z,80.33
2022-11-24T05:20:39.310Z,80.36
2022-11-24T05:23:08.387Z,80.29
2022-11-24T05:25:35.442Z,80.33
2022-11-24T05:28:05.007Z,80.33
2022-11-24T05:30:32.649Z,80.46
2022-11-24T05:32:59.544Z,80.38
2022-11-24T05:35:26.597Z,80.34
2022-11-24T05:37:53.344Z,80.40
2022-11-24T05:40:20.121Z,80.46
2022-11-24T05:42:48.207Z,80.55
2022-11-24T05:45:20.705Z,80.55
2022-11-24T05:47:49.122Z,80.69
2022-11-24T05:50:18.217Z,80.62
2022-11-24T05:52:45.452Z,80.62
2022-11-24T05:55:13.389Z,80.60
2022-11-24T05:57:40.221Z,80.62
2022-11-24T06:00:09.267Z,80.66
2022-11-24T06:02:36.173Z,80.73
2022-11-24T06:05:03.217Z,80.68
2022-11-24T06:07:30.015Z,80.80
2022-11-24T06:09:56.972Z,80.80
2022-11-24T06:12:23.769Z,80.86
2022-11-24T06:14:50.572Z,80.94
2022-11-24T06:17:17.629Z,80.92
2022-11-24T06:19:47.925Z,80.89
2022-11-24T06:22:15.244Z,80.83
2022-11-24T06:24:42.110Z,80.87
2022-11-24T06:27:08.895Z,80.77
2022-11-24T06:29:35.748Z,80.75
2022-11-24T06:32:02.588Z,80.70
2022-11-24T06:34:29.410Z,80.72
2022-11-24T06:36:56.212Z,80.67
2022-11-24T06:39:23.013Z,80.73
2022-11-24T06:41:50.892Z,80.63
2022-11-24T06:44:17.762Z,80.55
2022-11-24T06:46:45.021Z,80.59
2022-11-24T06:49:11.746Z,80.60
2022-11-24T06:51:38.588Z,80.41
2022-11-24T06:54:15.081Z,80.22
2022-11-24T06:56:41.901Z,80.99
2022-11-24T06:59:16.865Z,81.14
2022-11-24T07:01:43.644Z,80.75
2022-11-24T07:04:11.444Z,80.33
2022-11-24T07:06:40.158Z,80.62
2022-11-24T07:09:07.974Z,80.56
2022-11-24T07:11:35.270Z,79.50
2022-11-24T07:14:02.879Z,79.23
2022-11-24T07:16:30.226Z,79.09
2022-11-24T07:18:57.524Z,78.99
2022-11-24T07:21:25.770Z,78.81
2022-11-24T07:23:54.401Z,78.74
2022-11-24T07:26:21.486Z,78.62
2022-11-24T07:28:48.694Z,78.52
2022-11-24T07:31:19.018Z,78.46
2022-11-24T07:33:53.415Z,78.36
2022-11-24T07:36:20.646Z,78.39
2022-11-24T07:38:47.460Z,78.35
2022-11-24T07:41:15.983Z,78.35
2022-11-24T07:43:42.855Z,78.35
2022-11-24T07:46:12.730Z,78.37
2022-11-24T07:48:40.069Z,78.32
2022-11-24T07:51:07.697Z,78.33
2022-11-24T07:53:35.432Z,78.36
2022-11-24T07:56:03.730Z,78.31
2022-11-24T07:58:33.349Z,78.23
2022-11-24T08:01:08.378Z,78.22
2022-11-24T08:03:35.726Z,78.14
2022-11-24T08:08:49.252Z,78.14
2022-11-24T08:11:17.822Z,78.09
2022-11-24T08:13:45.026Z,78.67
2022-11-24T08:16:15.154Z,78.26
2022-11-24T08:18:42.901Z,78.11
2022-11-24T08:21:14.170Z,78.03
2022-11-24T08:23:41.888Z,77.96
2022-11-24T08:26:13.795Z,77.87
2022-11-24T08:28:41.019Z,77.73
2022-11-24T08:31:10.539Z,77.67
2022-11-24T08:33:37.793Z,77.56
2022-11-24T08:36:06.894Z,77.51
2022-11-24T08:38:34.136Z,77.48
2022-11-24T08:41:12.397Z,77.43
2022-11-24T08:43:39.854Z,77.44
2022-11-24T08:46:09.874Z,77.50
2022-11-24T08:48:37.083Z,77.54
2022-11-24T08:51:14.018Z,77.54
2022-11-24T08:53:41.911Z,77.56
2022-11-24T08:56:10.625Z,77.59
2022-11-24T08:58:38.146Z,77.70
2022-11-24T09:01:23.740Z,77.78
2022-11-24T09:03:51.572Z,77.74
2022-11-24T09:06:23.090Z,77.65
2022-11-24T09:08:50.207Z,77.60
2022-11-24T09:11:17.713Z,77.64
2022-11-24T09:13:44.821Z,77.72
2022-11-24T09:16:14.866Z,77.62
2022-11-24T09:18:42.705Z,77.63
2022-11-24T09:21:18.946Z,77.71
2022-11-24T09:23:50.552Z,77.75
2022-11-24T09:26:28.538Z,77.75
2022-11-24T09:28:57.081Z,77.69
2022-11-24T09:31:26.812Z,77.77
2022-11-24T09:33:54.516Z,77.67
2022-11-24T09:36:22.062Z,77.70
2022-11-24T09:38:48.866Z,77.71
2022-11-24T09:41:19.099Z,77.62
2022-11-24T09:44:10.399Z,77.62
2022-11-24T09:46:59.916Z,77.54
2022-11-24T09:49:51.111Z,77.54
2022-11-24T09:52:23.460Z,77.47
2022-11-24T09:55:03.107Z,77.41
2022-11-24T09:57:37.525Z,77.34
2022-11-24T10:00:12.597Z,77.30
2022-11-24T10:02:39.652Z,77.30
2022-11-24T10:05:07.073Z,77.24
2022-11-24T10:07:44.022Z,77.18
2022-11-24T10:10:25.482Z,77.12
2022-11-24T10:12:55.283Z,77.10
2022-11-24T10:15:45.067Z,77.05
2022-11-24T10:18:47.916Z,77.01
2022-11-24T10:21:23.389Z,76.94
2022-11-24T10:24:23.299Z,76.92
2022-11-24T10:27:10.942Z,76.93
2022-11-24T10:29:42.550Z,76.89
2022-11-24T10:32:23.946Z,76.85
2022-11-24T10:34:51.493Z,76.79
2022-11-24T10:37:33.646Z,76.78
2022-11-24T10:43:11.569Z,76.68
2022-11-24T10:45:39.751Z,76.68
2022-11-24T10:48:18.301Z,76.66
2022-11-24T10:50:45.243Z,76.65
2022-11-24T10:53:40.335Z,76.62
2022-11-24T10:56:07.274Z,76.64
2022-11-24T10:58:38.841Z,76.63
2022-11-24T11:01:14.878Z,76.59
2022-11-24T11:03:49.058Z,76.64
2022-11-24T11:06:22.836Z,76.66
2022-11-24T11:08:49.962Z,76.68
2022-11-24T11:11:27.516Z,76.73
2022-11-24T11:14:04.580Z,76.78
2022-11-24T11:16:39.189Z,76.79
2022-11-24T11:19:56.960Z,76.84
2022-11-24T11:22:29.929Z,76.80
2022-11-24T11:25:10.499Z,76.83
2022-11-24T11:27:39.104Z,76.85
2022-11-24T11:36:11.323Z,77.00
2022-11-24T11:38:39.843Z,77.10
2022-11-24T11:41:17.930Z,77.11
2022-11-24T11:43:47.750Z,77.16
2022-11-24T11:46:18.313Z,77.19
2022-11-24T11:48:47.346Z,77.20
2022-11-24T11:54:52.563Z,77.32
2022-11-24T11:57:38.404Z,77.38
2022-11-24T12:00:17.325Z,77.36
2022-11-24T12:02:56.712Z,77.43
2022-11-24T12:05:51.745Z,77.47
2022-11-24T12:09:18.544Z,77.53
2022-11-24T12:12:05.671Z,77.59
2022-11-24T12:14:39.344Z,77.59
2022-11-24T12:17:28.964Z,77.55
2022-11-24T12:20:19.162Z,77.52
2022-11-24T12:23:07.348Z,77.58
2022-11-24T12:25:41.127Z,77.58
2022-11-24T12:28:24.115Z,77.57
2022-11-24T12:31:05.122Z,77.56
2022-11-24T12:33:34.671Z,77.52
2022-11-24T12:36:24.608Z,77.51
2022-11-24T12:39:22.620Z,77.54
2022-11-24T12:42:03.258Z,77.51
2022-11-24T12:45:08.253Z,77.47
2022-11-24T12:47:56.661Z,77.43
2022-11-24T12:50:28.084Z,77.35
2022-11-24T12:53:08.381Z,77.33
2022-11-24T12:55:36.719Z,77.24
2022-11-24T12:58:26.145Z,77.20
2022-11-24T13:01:18.644Z,77.14
2022-11-24T13:03:45.652Z,77.08
2022-11-24T13:06:25.858Z,77.07
2022-11-24T13:08:52.789Z,77.06
2022-11-24T13:11:41.054Z,77.05
2022-11-24T13:14:18.769Z,77.04
2022-11-24T13:17:27.919Z,76.96
2022-11-24T13:19:43.664Z,76.88
2022-11-24T13:22:26.422Z,76.87
2022-11-24T13:25:19.204Z,76.88
2022-11-24T13:27:53.132Z,76.86
2022-11-24T13:30:35.074Z,76.85
2022-11-24T13:33:27.049Z,76.80
2022-11-24T13:36:02.973Z,76.70
2022-11-24T13:38:42.047Z,76.63
2022-11-24T13:41:27.676Z,76.60
2022-11-24T13:44:14.786Z,76.61
2022-11-24T13:47:06.722Z,76.58
2022-11-24T13:49:42.600Z,76.60
2022-11-24T13:52:40.430Z,76.60
2022-11-24T13:55:13.549Z,76.50
2022-11-24T13:57:48.056Z,76.44
2022-11-24T14:00:35.050Z,76.42
2022-11-24T14:03:19.711Z,76.38
2022-11-24T14:05:49.404Z,76.34
2022-11-24T14:08:30.527Z,76.33
2022-11-24T14:10:59.978Z,76.31
2022-11-24T14:13:33.726Z,76.28
2022-11-24T14:16:09.701Z,76.30
2022-11-24T14:18:38.349Z,76.29
2022-11-24T14:21:35.820Z,76.36
2022-11-24T14:24:25.425Z,76.28
2022-11-24T14:26:52.314Z,76.10
2022-11-24T14:29:24.580Z,76.08
2022-11-24T14:31:59.699Z,76.08
2022-11-24T14:34:29.094Z,76.01
2022-11-24T14:36:57.357Z,75.97
2022-11-24T14:39:26.101Z,76.00
2022-11-24T14:42:03.801Z,76.13
2022-11-24T14:44:52.831Z,76.25
2022-11-24T14:47:30.503Z,76.40
2022-11-24T14:50:07.724Z,76.52
2022-11-24T14:52:35.346Z,76.62
2022-11-24T14:55:21.353Z,76.78
2022-11-24T14:57:49.058Z,76.94
2022-11-24T15:00:20.315Z,77.08
2022-11-24T15:02:52.023Z,77.22
2022-11-24T15:05:51.531Z,77.43
2022-11-24T15:08:18.647Z,77.56
2022-11-24T15:10:46.092Z,77.75
2022-11-24T15:13:23.693Z,77.89
2022-11-24T15:16:02.986Z,77.99
2022-11-24T15:18:33.265Z,78.18
2022-11-24T15:21:00.182Z,78.32
2022-11-24T15:23:31.032Z,78.38
2022-11-24T15:26:01.036Z,78.51
2022-11-24T15:28:29.665Z,78.70
2022-11-24T15:31:00.194Z,78.87
2022-11-24T15:33:27.652Z,79.03
2022-11-24T15:35:55.080Z,79.12
2022-11-24T15:38:23.083Z,79.19
2022-11-24T15:40:52.895Z,79.21
2022-11-24T15:43:41.364Z,79.27
2022-11-24T15:46:09.314Z,79.27
2022-11-24T15:48:36.103Z,79.52
2022-11-24T15:51:05.641Z,79.60
2022-11-24T15:53:37.741Z,79.73
2022-11-24T15:56:08.651Z,79.69
2022-11-24T15:58:36.531Z,79.76
2022-11-24T16:01:03.393Z,79.70
2022-11-24T16:03:47.762Z,79.77
2022-11-24T16:06:24.603Z,79.73
2022-11-24T16:08:53.464Z,79.89
2022-11-24T16:11:20.972Z,80.02
2022-11-24T16:13:52.344Z,80.07
2022-11-24T16:16:20.745Z,80.15
2022-11-24T16:18:47.878Z,80.26
2022-11-24T16:21:14.768Z,80.32
2022-11-24T16:23:41.801Z,80.40
2022-11-24T16:26:10.367Z,80.43
2022-11-24T16:28:37.369Z,80.48
2022-11-24T16:31:04.271Z,80.52
2022-11-24T16:33:31.639Z,80.62
2022-11-24T16:35:59.034Z,80.64
2022-11-24T16:38:25.892Z,80.58
2022-11-24T16:40:58.775Z,80.47
2022-11-24T16:43:25.881Z,80.34
2022-11-24T16:46:18.579Z,80.27
2022-11-24T16:48:47.135Z,80.24
2022-11-24T16:51:15.028Z,80.56
2022-11-24T16:53:42.220Z,80.38
2022-11-24T16:56:09.704Z,80.30
2022-11-24T16:58:41.609Z,80.16
2022-11-24T17:01:11.943Z,80.13
2022-11-24T17:03:39.658Z,80.18
2022-11-24T17:06:09.242Z,80.13
2022-11-24T17:08:38.281Z,80.22
2022-11-24T17:11:24.995Z,80.26
2022-11-24T17:13:52.439Z,80.31
2022-11-24T17:16:22.593Z,80.31
2022-11-24T17:18:50.804Z,80.35
2022-11-24T17:21:21.167Z,80.29
2022-11-24T17:23:52.725Z,80.30
2022-11-24T17:26:19.674Z,80.22
2022-11-24T17:28:46.577Z,80.17
2022-11-24T17:31:22.993Z,80.17
2022-11-24T17:33:51.836Z,80.16
2022-11-24T17:36:19.076Z,80.14
2022-11-24T17:38:46.411Z,80.14
2022-11-24T17:41:13.243Z,80.13
2022-11-24T17:43:40.376Z,80.06
2022-11-24T17:46:07.766Z,79.92
2022-11-24T17:48:35.600Z,79.83
2022-11-24T17:51:10.822Z,79.84
2022-11-24T17:53:38.147Z,79.82
2022-11-24T17:56:07.719Z,79.74
2022-11-24T17:58:41.287Z,79.64
2022-11-24T18:01:10.019Z,79.55
2022-11-24T18:03:39.341Z,79.52
2022-11-24T18:06:18.078Z,79.45
2022-11-24T18:08:47.101Z,79.34
2022-11-24T18:11:24.583Z,79.35
2022-11-24T18:13:59.828Z,79.29
2022-11-24T18:16:30.678Z,79.27
2022-11-24T18:19:08.516Z,79.28
2022-11-24T18:21:44.198Z,79.26
2022-11-24T18:24:12.116Z,79.28
2022-11-24T18:26:40.941Z,79.32
2022-11-24T18:29:08.490Z,79.25
2022-11-24T18:31:36.338Z,79.22
2022-11-24T18:34:05.670Z,79.17
2022-11-24T18:36:34.074Z,79.20
2022-11-24T18:39:02.520Z,79.17
2022-11-24T18:41:29.925Z,79.17
2022-11-24T18:43:57.336Z,79.13
2022-11-24T18:46:24.623Z,79.15
2022-11-24T18:48:53.622Z,79.09
2022-11-24T18:51:23.195Z,79.04
2022-11-24T18:53:55.165Z,78.98
2022-11-24T18:56:22.621Z,79.05
2022-11-24T18:58:53.496Z,79.02
2022-11-24T19:01:23.601Z,78.97
2022-11-24T19:03:53.441Z,78.97
2022-11-24T19:06:23.147Z,78.95
2022-11-24T19:08:53.885Z,78.95
2022-11-24T19:11:26.724Z,78.95
2022-11-24T19:13:55.493Z,78.97
2022-11-24T19:16:24.388Z,79.05
2022-11-24T19:18:54.367Z,78.94
2022-11-24T19:21:22.876Z,78.85
2022-11-24T19:23:50.310Z,78.96
2022-11-24T19:26:18.276Z,78.97
2022-11-24T19:28:45.496Z,78.90
2022-11-24T19:31:15.387Z,78.86
2022-11-24T19:33:42.403Z,78.80
2022-11-24T19:36:17.142Z,78.76
2022-11-24T19:38:52.945Z,78.80
2022-11-24T19:41:25.948Z,78.82
2022-11-24T19:43:56.934Z,78.73
2022-11-24T19:46:29.980Z,78.70
2022-11-24T19:49:01.271Z,78.67
2022-11-24T19:51:34.142Z,78.58
2022-11-24T19:54:06.468Z,78.56
2022-11-24T19:56:36.543Z,78.55
2022-11-24T19:59:06.977Z,78.54
2022-11-24T20:01:39.655Z,78.54
2022-11-24T20:04:10.998Z,78.55
2022-11-24T20:06:41.241Z,78.63
2022-11-24T20:09:13.297Z,78.58
2022-11-24T20:11:41.624Z,78.56
2022-11-24T20:14:12.659Z,78.58
2022-11-24T20:16:40.160Z,78.53
2022-11-24T20:19:11.146Z,78.55
2022-11-24T20:21:39.785Z,78.49
2022-11-24T20:24:11.548Z,78.41
2022-11-24T20:26:46.108Z,78.45
2022-11-24T20:29:17.440Z,78.41
2022-11-24T20:31:47.650Z,78.37
2022-11-24T20:34:15.808Z,78.36
2022-11-24T20:36:45.289Z,78.21
2022-11-24T20:39:15.848Z,78.24
2022-11-24T20:41:43.245Z,78.27
2022-11-24T20:44:15.458Z,78.27
2022-11-24T20:46:44.482Z,78.24
2022-11-24T20:49:14.503Z,78.25
2022-11-24T20:51:44.673Z,78.16
2022-11-24T20:54:15.785Z,78.25
2022-11-24T20:56:44.814Z,78.25
2022-11-24T20:59:14.979Z,78.23
2022-11-24T21:01:45.809Z,78.27
2022-11-24T21:04:16.141Z,78.34
2022-11-24T21:06:43.151Z,78.37
2022-11-24T21:09:10.812Z,78.48
2022-11-24T21:11:39.411Z,78.59
2022-11-24T21:14:07.784Z,78.66
2022-11-24T21:16:37.195Z,78.62
2022-11-24T21:19:12.147Z,78.61
2022-11-24T21:21:40.367Z,78.66
2022-11-24T21:24:14.191Z,78.74
2022-11-24T21:26:42.311Z,78.76
2022-11-24T21:29:12.049Z,78.74
2022-11-24T21:31:38.988Z,78.89
2022-11-24T21:34:07.808Z,78.90
2022-11-24T21:36:35.901Z,78.96
2022-11-24T21:39:03.714Z,78.89
2022-11-24T21:41:32.951Z,78.98
2022-11-24T21:43:59.799Z,78.99
2022-11-24T21:46:28.556Z,79.00
2022-11-24T21:48:55.389Z,78.98
2022-11-24T21:51:22.132Z,79.01
2022-11-24T21:53:48.915Z,79.04
2022-11-24T21:56:17.815Z,79.09
2022-11-24T21:58:55.480Z,79.09
2022-11-24T22:01:28.246Z,79.21
2022-11-24T22:03:56.027Z,79.27
2022-11-24T22:06:23.384Z,79.34
2022-11-24T22:08:50.610Z,79.32
2022-11-24T22:11:23.112Z,79.36
2022-11-24T22:13:51.237Z,79.43
2022-11-24T22:16:23.321Z,79.38
2022-11-24T22:18:50.895Z,79.39
2022-11-24T22:21:20.111Z,79.47
2022-11-24T22:23:51.467Z,79.48
2022-11-24T22:26:21.064Z,79.51
2022-11-24T22:28:48.337Z,79.51
2022-11-24T22:31:17.918Z,79.48
2022-11-24T22:33:45.032Z,79.49
2022-11-24T22:36:13.504Z,79.47
2022-11-24T22:38:41.263Z,79.51
2022-11-24T22:41:10.880Z,79.57
2022-11-24T22:43:39.820Z,79.55
2022-11-24T22:46:12.675Z,79.60
2022-11-24T22:48:40.383Z,79.61
2022-11-24T22:51:15.855Z,79.63
2022-11-24T22:53:46.635Z,79.61
2022-11-24T22:56:13.433Z,79.61
2022-11-24T22:58:40.685Z,79.62
2022-11-24T23:01:12.816Z,79.60
2022-11-24T23:03:40.361Z,79.59
2022-11-24T23:06:13.278Z,79.66
2022-11-24T23:08:40.948Z,79.66
2022-11-24T23:11:13.825Z,79.65
2022-11-24T23:13:41.156Z,79.60
2022-11-24T23:16:10.662Z,79.60
2022-11-24T23:18:38.309Z,79.60
2022-11-24T23:21:16.905Z,79.65
2022-11-24T23:23:44.919Z,79.61
2022-11-24T23:26:18.184Z,79.59
2022-11-24T23:28:45.381Z,79.48
2022-11-24T23:31:14.901Z,79.48
2022-11-24T23:33:42.629Z,79.50
2022-11-24T23:36:12.440Z,79.43
2022-11-24T23:38:39.907Z,79.35
2022-11-24T23:41:10.753Z,79.38
2022-11-24T23:43:39.723Z,79.40
2022-11-24T23:46:09.153Z,79.42
2022-11-24T23:48:36.561Z,79.52
2022-11-24T23:51:24.032Z,79.49
2022-11-24T23:53:51.754Z,79.52
2022-11-24T23:56:24.223Z,79.73
2022-11-24T23:58:51.503Z,79.71
